Time;durP1;ratioP1;P1;durP2;ratioP2;P2;SDS_P1;SDS_P2;PMS_P1;PMS_P2;Temp;Humidity;BMP_temperature;BMP_pressure;BME280_temperature;BME280_humidity;BME280_pressure;Samples;Min_cycle;Max_cycle;Signal;HPM_P1;HPM_P2
2021/06/17 00:00:22;;;;;;;11.27;8.50;;;;;;;19.58;77.92;100834.56;5002635;28;20310;-73
2021/06/17 00:02:50;;;;;;;12.40;9.43;;;;;;;19.56;78.12;100835.56;5004900;28;20672;-71
2021/06/17 00:05:19;;;;;;;10.00;9.00;;;;;;;19.54;78.14;100826.88;5009491;28;20566;-71
2021/06/17 00:07:45;;;;;;;9.70;8.20;;;;;;;19.51;78.39;100842.94;5007712;28;20228;-73
2021/06/17 00:10:18;;;;;;;9.77;8.60;;;;;;;19.47;78.85;100840.50;5007237;28;20214;-72
2021/06/17 00:12:46;;;;;;;11.07;9.67;;;;;;;19.43;79.01;100840.75;5005644;28;20280;-72
2021/06/17 00:15:14;;;;;;;11.50;9.67;;;;;;;19.39;78.83;100844.53;5007594;28;20204;-71
2021/06/17 00:17:41;;;;;;;12.07;8.93;;;;;;;19.34;78.93;100847.44;5009729;28;20223;-73
2021/06/17 00:20:08;;;;;;;11.10;9.27;;;;;;;19.30;79.59;100840.66;5004708;28;20207;-72
2021/06/17 00:22:35;;;;;;;10.27;9.13;;;;;;;19.29;79.55;100846.88;4997504;28;20303;-73
2021/06/17 00:25:01;;;;;;;13.43;9.33;;;;;;;19.26;79.72;100845.28;5008994;28;20196;-73
2021/06/17 00:27:28;;;;;;;11.47;9.17;;;;;;;19.23;79.37;100834.88;5010598;28;20710;-72
2021/06/17 00:29:56;;;;;;;12.63;9.77;;;;;;;19.20;79.90;100842.97;5008507;28;20773;-73
2021/06/17 00:32:22;;;;;;;12.43;9.80;;;;;;;19.19;79.91;100843.06;5006022;28;21239;-73
2021/06/17 00:34:49;;;;;;;12.80;9.83;;;;;;;19.18;80.25;100842.22;4986315;28;20212;-73
2021/06/17 00:37:16;;;;;;;11.23;10.10;;;;;;;19.16;80.41;100848.53;4980130;28;20697;-71
2021/06/17 00:39:43;;;;;;;11.53;10.23;;;;;;;19.13;80.33;100843.44;5005371;28;20303;-72
2021/06/17 00:42:09;;;;;;;10.97;9.87;;;;;;;19.10;80.38;100842.69;5003418;28;20296;-73
2021/06/17 00:44:36;;;;;;;12.73;9.67;;;;;;;19.09;80.47;100842.75;5003482;28;20690;-72
2021/06/17 00:47:05;;;;;;;10.77;9.67;;;;;;;19.03;80.89;100841.34;5007929;28;20630;-73
2021/06/17 00:49:31;;;;;;;10.03;9.03;;;;;;;19.00;80.75;100849.44;5006041;28;20196;-73
2021/06/17 00:51:59;;;;;;;11.40;10.20;;;;;;;18.97;81.28;100843.47;5007325;28;20597;-70
2021/06/17 00:54:32;;;;;;;11.67;9.67;;;;;;;18.95;81.12;100845.34;5004417;28;20202;-73
2021/06/17 00:56:59;;;;;;;11.43;10.30;;;;;;;18.91;81.43;100842.88;4983966;28;20586;-72
2021/06/17 00:59:26;;;;;;;13.23;10.70;;;;;;;18.89;81.79;100844.78;5003910;28;20201;-73
2021/06/17 01:01:52;;;;;;;11.67;9.97;;;;;;;18.87;81.87;100836.09;4999679;28;20212;-71
2021/06/17 01:04:20;;;;;;;12.53;10.07;;;;;;;18.85;82.13;100837.94;4997259;28;20238;-72
2021/06/17 01:06:47;;;;;;;11.73;10.17;;;;;;;18.85;82.32;100839.75;5012622;28;20255;-70
2021/06/17 01:09:20;;;;;;;13.07;10.43;;;;;;;18.83;82.27;100836.34;4985557;28;20208;-71
2021/06/17 01:11:55;;;;;;;14.03;10.47;;;;;;;18.82;82.24;100832.84;5001475;28;20710;-72
2021/06/17 01:14:25;;;;;;;12.73;10.67;;;;;;;18.79;82.77;100834.78;4985262;28;21511;-73
2021/06/17 01:16:58;;;;;;;11.63;10.43;;;;;;;18.77;82.71;100828.72;5007831;28;20790;-73
2021/06/17 01:19:50;;;;;;;13.40;10.90;;;;;;;18.76;82.98;100833.16;5004527;28;20259;-73
2021/06/17 01:22:22;;;;;;;12.03;10.83;;;;;;;18.73;82.87;100826.28;4985200;28;20644;-71
2021/06/17 01:25:10;;;;;;;13.57;10.20;;;;;;;18.72;83.52;100835.13;5006636;28;20200;-72
2021/06/17 01:28:01;;;;;;;13.73;10.63;;;;;;;18.68;82.92;100830.97;4985657;28;20910;-72
2021/06/17 01:30:29;;;;;;;12.70;10.80;;;;;;;18.67;83.63;100831.88;5005768;28;20209;-72
2021/06/17 01:32:59;;;;;;;12.63;11.33;;;;;;;18.65;83.69;100831.13;4987990;28;20205;-72
2021/06/17 01:35:28;;;;;;;14.43;11.07;;;;;;;18.66;83.64;100827.56;5003637;28;20298;-73
2021/06/17 01:37:58;;;;;;;15.00;11.03;;;;;;;18.64;83.49;100826.78;5000713;28;20236;-72
2021/06/17 01:40:26;;;;;;;12.40;10.47;;;;;;;18.61;83.98;100819.06;5010542;28;20232;-72
2021/06/17 01:42:53;;;;;;;14.83;11.27;;;;;;;18.59;83.71;100820.06;5003980;28;20207;-73
2021/06/17 01:45:22;;;;;;;12.90;11.00;;;;;;;18.55;84.28;100814.94;5009475;28;20209;-74
2021/06/17 01:47:51;;;;;;;11.67;10.23;;;;;;;18.51;84.58;100818.72;4984772;28;20223;-73
2021/06/17 01:50:19;;;;;;;12.23;11.03;;;;;;;18.49;84.53;100825.88;5006178;28;20204;-73
2021/06/17 01:52:47;;;;;;;13.23;11.10;;;;;;;18.47;84.97;100822.47;5004020;28;20299;-73
2021/06/17 01:55:15;;;;;;;12.33;11.03;;;;;;;18.42;84.87;100824.50;4988655;28;20291;-69
2021/06/17 01:57:43;;;;;;;15.23;11.23;;;;;;;18.42;85.57;100823.66;5006367;28;20259;-73
2021/06/17 02:00:11;;;;;;;12.83;10.73;;;;;;;18.37;85.10;100823.06;5008155;28;20201;-72
2021/06/17 02:02:40;;;;;;;17.23;11.60;;;;;;;18.32;85.69;100821.53;5017180;28;20220;-73
2021/06/17 02:05:08;;;;;;;13.10;11.47;;;;;;;18.29;85.91;100821.72;5007134;28;20266;-72
2021/06/17 02:07:38;;;;;;;13.47;10.77;;;;;;;18.25;85.85;100822.78;5001438;28;20595;-72
2021/06/17 02:10:06;;;;;;;13.40;11.37;;;;;;;18.21;86.56;100820.44;5006271;28;20257;-72
2021/06/17 02:12:34;;;;;;;12.73;11.43;;;;;;;18.15;86.60;100827.75;4989002;28;20216;-71
2021/06/17 02:15:01;;;;;;;13.83;12.27;;;;;;;18.11;87.25;100820.91;5008260;28;20623;-72
2021/06/17 02:17:30;;;;;;;17.57;11.77;;;;;;;18.10;87.19;100818.34;5004672;28;20217;-73
2021/06/17 02:19:58;;;;;;;13.17;11.77;;;;;;;18.07;87.64;100810.63;5009326;28;20234;-73
2021/06/17 02:22:26;;;;;;;13.93;11.30;;;;;;;18.01;87.60;100821.50;5005601;28;20566;-72
2021/06/17 02:24:55;;;;;;;15.93;11.83;;;;;;;17.93;88.14;100827.19;5008578;28;20295;-72
2021/06/17 02:27:27;;;;;;;13.37;11.73;;;;;;;17.85;88.39;100824.91;5005701;28;20224;-73
2021/06/17 02:29:57;;;;;;;15.40;11.97;;;;;;;17.82;88.86;100824.22;5001534;28;20311;-73
2021/06/17 02:32:26;;;;;;;13.90;11.87;;;;;;;17.78;88.96;100826.19;5004738;28;20246;-70
2021/06/17 02:34:54;;;;;;;13.43;12.03;;;;;;;17.74;89.04;100817.59;5008099;28;20216;-73
2021/06/17 02:37:23;;;;;;;14.67;12.03;;;;;;;17.71;89.49;100824.81;5000991;28;20315;-73
2021/06/17 02:39:51;;;;;;;14.83;12.53;;;;;;;17.66;89.79;100813.66;5009335;28;20192;-73
2021/06/17 02:42:21;;;;;;;15.53;12.20;;;;;;;17.59;89.72;100815.78;5010496;28;20576;-72
2021/06/17 02:44:50;;;;;;;14.10;12.60;;;;;;;17.58;90.41;100822.81;5003749;28;20223;-72
2021/06/17 02:47:17;;;;;;;14.07;11.60;;;;;;;17.56;90.25;100813.28;5007625;28;20809;-71
2021/06/17 02:49:44;;;;;;;14.33;12.93;;;;;;;17.55;91.02;100814.22;5009333;28;20797;-73
2021/06/17 02:52:10;;;;;;;16.27;12.93;;;;;;;17.55;90.47;100812.47;5002303;28;20272;-71
2021/06/17 02:54:40;;;;;;;17.07;13.10;;;;;;;17.55;90.61;100811.59;5005269;28;20209;-74
2021/06/17 02:57:16;;;;;;;15.30;13.00;;;;;;;17.56;90.82;100808.03;4999147;28;20227;-71
2021/06/17 02:59:56;;;;;;;15.87;12.67;;;;;;;17.59;90.81;100818.41;5008058;28;20269;-72
2021/06/17 03:02:28;;;;;;;14.73;12.83;;;;;;;17.57;90.64;100815.84;5008308;28;20892;-73
2021/06/17 03:05:06;;;;;;;14.63;12.77;;;;;;;17.54;90.58;100809.91;5008570;28;20214;-73
2021/06/17 03:07:36;;;;;;;15.83;13.30;;;;;;;17.54;91.16;100797.56;5002628;28;20234;-72
2021/06/17 03:10:07;;;;;;;14.57;12.90;;;;;;;17.56;91.05;100806.22;5007798;28;20203;-73
2021/06/17 03:12:34;;;;;;;15.13;13.03;;;;;;;17.58;91.37;100803.53;5004220;28;20255;-74
2021/06/17 03:15:05;;;;;;;15.17;13.57;;;;;;;17.59;91.24;100798.16;5007624;28;20200;-73
2021/06/17 03:17:35;;;;;;;16.97;13.40;;;;;;;17.59;91.30;100799.97;5000667;28;20272;-73
2021/06/17 03:20:04;;;;;;;14.80;13.20;;;;;;;17.58;91.05;100796.44;5010967;28;20291;-72
2021/06/17 03:22:32;;;;;;;19.70;14.00;;;;;;;17.59;90.99;100798.16;5000004;28;20239;-73
2021/06/17 03:25:03;;;;;;;16.33;12.77;;;;;;;17.59;90.89;100798.16;4992605;28;20207;-71
2021/06/17 03:27:31;;;;;;;16.90;12.87;;;;;;;17.61;90.77;100803.38;4984186;28;20314;-71
2021/06/17 03:29:58;;;;;;;15.80;13.00;;;;;;;17.61;90.87;100798.09;4989144;28;20245;-73
2021/06/17 03:32:26;;;;;;;15.40;13.17;;;;;;;17.61;91.22;100800.72;5000475;28;20283;-72
2021/06/17 03:34:54;;;;;;;18.00;13.07;;;;;;;17.62;91.04;100804.22;4999741;28;20204;-71
2021/06/17 03:37:24;;;;;;;16.73;13.33;;;;;;;17.62;91.04;100807.69;4997650;28;20252;-71
2021/06/17 03:39:53;;;;;;;18.10;13.87;;;;;;;17.64;90.56;100802.34;5004128;28;20219;-72
2021/06/17 03:42:22;;;;;;;15.37;13.27;;;;;;;17.64;90.84;100799.69;4997759;28;20210;-72
2021/06/17 03:44:52;;;;;;;15.50;13.80;;;;;;;17.66;91.16;100800.47;4999555;28;20704;-73
2021/06/17 03:47:21;;;;;;;14.90;13.27;;;;;;;17.67;90.42;100804.81;5000310;28;20303;-72
2021/06/17 03:49:48;;;;;;;19.37;13.83;;;;;;;17.69;91.10;100808.22;5004344;28;20211;-72
2021/06/17 03:52:16;;;;;;;17.27;13.83;;;;;;;17.71;90.59;100808.97;4998192;28;20259;-72
2021/06/17 03:54:42;;;;;;;14.23;12.73;;;;;;;17.73;90.48;100813.25;5000804;28;20563;-70
2021/06/17 03:57:10;;;;;;;16.27;12.87;;;;;;;17.75;90.93;100811.38;5005494;28;20307;-73
2021/06/17 03:59:40;;;;;;;15.77;13.70;;;;;;;17.77;90.37;100814.78;5002557;28;20200;-73
2021/06/17 04:02:09;;;;;;;16.27;13.73;;;;;;;17.80;89.92;100808.53;5001319;28;20390;-70
2021/06/17 04:04:36;;;;;;;16.53;13.47;;;;;;;17.86;90.07;100808.22;5002248;28;20207;-73
2021/06/17 04:07:07;;;;;;;18.27;14.07;;;;;;;17.92;89.90;100815.81;5003477;28;20231;-72
2021/06/17 04:09:36;;;;;;;14.77;12.97;;;;;;;17.97;89.69;100813.75;5007558;28;20211;-72
2021/06/17 04:12:06;;;;;;;14.53;12.93;;;;;;;18.07;89.14;100819.38;5002129;28;20691;-69
2021/06/17 04:14:36;;;;;;;21.53;13.67;;;;;;;18.18;88.86;100816.16;4988080;28;20236;-73
2021/06/17 04:17:04;;;;;;;15.33;13.33;;;;;;;18.30;88.08;100818.13;5009371;28;20642;-73
2021/06/17 04:19:34;;;;;;;15.43;13.10;;;;;;;18.39;88.01;100824.69;5009515;28;20192;-73
2021/06/17 04:22:02;;;;;;;13.23;11.90;;;;;;;18.50;87.55;100824.94;5004798;28;20299;-73
2021/06/17 04:24:33;;;;;;;15.97;13.17;;;;;;;18.61;87.00;100829.63;5000756;28;20193;-72
2021/06/17 04:27:00;;;;;;;14.53;12.93;;;;;;;18.71;85.79;100828.16;5003634;28;20229;-73
2021/06/17 04:29:28;;;;;;;15.37;13.27;;;;;;;18.82;85.56;100824.06;5005028;28;20231;-73
2021/06/17 04:31:55;;;;;;;15.20;12.17;;;;;;;18.93;85.03;100826.94;5003976;28;20207;-72
2021/06/17 04:34:23;;;;;;;16.40;12.37;;;;;;;19.04;84.35;100832.44;5004538;28;20203;-71
2021/06/17 04:36:51;;;;;;;13.77;11.67;;;;;;;19.15;83.40;100826.53;5001263;28;20239;-72
2021/06/17 04:39:19;;;;;;;13.30;11.90;;;;;;;19.26;83.02;100831.19;5000365;28;20197;-72
2021/06/17 04:41:46;;;;;;;13.13;11.60;;;;;;;19.38;82.58;100829.59;4998974;28;20212;-72
2021/06/17 04:44:13;;;;;;;14.37;11.93;;;;;;;19.52;81.84;100831.44;4988217;28;20363;-72
2021/06/17 04:46:40;;;;;;;12.93;11.63;;;;;;;19.64;81.64;100828.88;5001432;28;20340;-73
2021/06/17 04:49:12;;;;;;;13.03;11.43;;;;;;;19.78;80.59;100828.06;5004891;28;20209;-73
2021/06/17 04:51:39;;;;;;;13.00;11.50;;;;;;;19.86;79.87;100831.09;4986078;28;20681;-72
2021/06/17 04:54:08;;;;;;;12.87;11.10;;;;;;;20.00;79.37;100824.13;5007069;28;20224;-73
2021/06/17 04:56:34;;;;;;;14.57;11.00;;;;;;;20.10;79.07;100824.38;5006226;28;20284;-73
2021/06/17 04:59:01;;;;;;;13.83;10.73;;;;;;;20.19;78.51;100829.94;5006891;28;20199;-71
2021/06/17 05:01:27;;;;;;;13.67;10.97;;;;;;;20.30;78.16;100833.69;4986849;28;20212;-71
2021/06/17 05:03:54;;;;;;;11.63;10.37;;;;;;;20.42;78.26;100833.78;5010408;28;20193;-73
2021/06/17 05:06:20;;;;;;;11.73;10.53;;;;;;;20.54;76.98;100834.75;5004927;28;20688;-73
2021/06/17 05:11:32;;;;;;;12.60;10.63;;;;;;;20.85;75.40;100848.69;5002819;28;20216;-73
2021/06/17 05:13:58;;;;;;;11.13;9.93;;;;;;;20.95;74.74;100843.66;5006708;28;20204;-73
2021/06/17 05:16:25;;;;;;;11.83;10.30;;;;;;;21.07;73.85;100849.91;5006131;28;20239;-73
2021/06/17 05:18:51;;;;;;;12.30;10.17;;;;;;;21.23;75.83;100852.38;4990766;28;20238;-71
2021/06/17 05:21:18;;;;;;;14.07;9.97;;;;;;;21.33;74.04;100850.81;5002483;28;20748;-73
2021/06/17 05:23:44;;;;;;;12.43;10.43;;;;;;;21.34;72.83;100857.84;5006629;28;20263;-73
2021/06/17 05:26:11;;;;;;;12.43;9.37;;;;;;;21.43;72.26;100864.31;5005891;28;20304;-71
2021/06/17 05:28:39;;;;;;;10.67;9.57;;;;;;;21.58;71.66;100868.59;5007255;28;20242;-72
2021/06/17 05:31:07;;;;;;;12.43;9.63;;;;;;;21.68;70.99;100874.13;5003341;28;20698;-72
2021/06/17 05:33:34;;;;;;;10.40;9.30;;;;;;;21.75;70.93;100870.09;5008874;28;20192;-70
2021/06/17 05:36:02;;;;;;;9.80;8.80;;;;;;;21.87;70.35;100879.84;5008365;28;20319;-72
2021/06/17 05:38:30;;;;;;;15.80;9.30;;;;;;;22.05;70.74;100879.50;5005503;28;20351;-73
2021/06/17 05:40:56;;;;;;;10.57;9.17;;;;;;;22.12;69.86;100871.00;5005029;28;20232;-73
2021/06/17 05:43:23;;;;;;;11.63;9.10;;;;;;;22.23;69.02;100883.53;5007919;28;20200;-72
2021/06/17 05:45:51;;;;;;;10.93;8.67;;;;;;;22.35;67.91;100881.81;4988994;28;20689;-73
2021/06/17 05:48:18;;;;;;;9.53;8.57;;;;;;;22.50;68.84;100879.88;5006012;28;20224;-70
2021/06/17 05:50:44;;;;;;;9.70;8.67;;;;;;;22.60;67.68;100888.03;5008000;28;20205;-70
2021/06/17 05:53:11;;;;;;;12.20;9.23;;;;;;;22.71;67.52;100881.91;4999347;28;20200;-72
2021/06/17 05:55:37;;;;;;;10.17;8.80;;;;;;;22.81;66.62;100897.09;5000408;28;20209;-73
2021/06/17 05:58:04;;;;;;;11.50;8.33;;;;;;;22.94;65.98;100896.19;4988157;28;20227;-73
2021/06/17 06:00:31;;;;;;;9.23;7.90;;;;;;;23.10;65.32;100893.28;5004162;28;20224;-72
2021/06/17 06:02:58;;;;;;;9.00;7.50;;;;;;;23.20;64.86;100896.94;5005389;28;20212;-73
2021/06/17 06:05:25;;;;;;;9.33;7.83;;;;;;;23.34;63.97;100901.22;4996279;28;20607;-73
2021/06/17 06:07:57;;;;;;;9.63;8.20;;;;;;;23.48;65.49;100894.84;5002019;28;20231;-74
2021/06/17 06:10:24;;;;;;;9.07;7.90;;;;;;;23.59;64.77;100895.72;4993614;28;20213;-73
2021/06/17 06:12:50;;;;;;;8.23;7.27;;;;;;;23.70;63.84;100894.88;5005012;28;20208;-73
2021/06/17 06:15:16;;;;;;;9.10;7.40;;;;;;;23.78;63.85;100899.59;5001977;28;20205;-73
2021/06/17 06:17:43;;;;;;;9.77;7.60;;;;;;;23.87;62.56;100896.28;5005617;28;20224;-72
2021/06/17 06:20:12;;;;;;;9.23;7.40;;;;;;;23.96;62.85;100894.72;4997409;28;20209;-71
2021/06/17 06:22:38;;;;;;;8.98;7.57;;;;;;;24.09;62.64;100895.44;5005549;28;20212;-72
2021/06/17 06:25:06;;;;;;;8.93;7.40;;;;;;;24.24;61.61;100901.38;4997324;28;20292;-72
2021/06/17 06:27:33;;;;;;;8.52;7.30;;;;;;;24.31;61.22;100902.59;4989041;28;20232;-72
2021/06/17 06:30:02;;;;;;;8.55;7.65;;;;;;;24.44;60.14;100905.09;5000187;28;20220;-73
2021/06/17 06:32:29;;;;;;;8.13;7.32;;;;;;;24.63;59.93;100895.66;5003051;28;20254;-72
2021/06/17 06:34:57;;;;;;;7.95;7.15;;;;;;;24.71;58.83;100907.41;5002995;28;21071;-72
2021/06/17 06:37:26;;;;;;;8.00;7.00;;;;;;;24.82;59.51;100897.66;5002538;28;20476;-72
2021/06/17 06:39:52;;;;;;;8.40;7.00;;;;;;;24.90;58.76;100904.03;4999601;28;20196;-71
2021/06/17 06:42:18;;;;;;;9.35;7.40;;;;;;;24.99;57.84;100905.09;5003094;28;20197;-72
2021/06/17 06:44:45;;;;;;;8.55;7.05;;;;;;;25.12;59.52;100900.47;5005501;28;20291;-72
2021/06/17 06:47:11;;;;;;;11.45;6.65;;;;;;;25.24;57.87;100895.06;5007930;28;20228;-72
2021/06/17 06:49:38;;;;;;;7.38;6.68;;;;;;;25.29;57.86;100898.22;4995725;28;20316;-73
2021/06/17 06:52:05;;;;;;;8.60;7.18;;;;;;;25.37;57.13;100894.94;5000462;28;20200;-70
2021/06/17 06:54:32;;;;;;;8.88;6.43;;;;;;;25.56;56.06;100905.72;5007924;28;20217;-72
2021/06/17 06:56:59;;;;;;;7.63;6.28;;;;;;;25.63;57.28;100904.22;5005182;28;20235;-72
2021/06/17 06:59:25;;;;;;;7.85;7.05;;;;;;;25.65;56.49;100901.44;5001391;28;20298;-72
2021/06/17 07:01:53;;;;;;;7.45;5.97;;;;;;;25.81;56.14;100909.81;5005493;28;20466;-72
2021/06/17 07:04:20;;;;;;;8.52;6.93;;;;;;;25.94;56.33;100896.25;4998698;28;20196;-73
2021/06/17 07:06:47;;;;;;;7.78;6.97;;;;;;;26.11;54.30;100910.81;5003574;28;20414;-72
2021/06/17 07:09:14;;;;;;;7.10;6.40;;;;;;;26.09;55.05;100902.09;5001703;28;20216;-71
2021/06/17 07:11:41;;;;;;;8.05;6.30;;;;;;;26.18;55.04;100903.13;5002315;28;20200;-72
2021/06/17 07:14:08;;;;;;;8.75;6.18;;;;;;;26.36;53.99;100908.66;5002506;28;20228;-70
2021/06/17 07:16:34;;;;;;;7.55;5.78;;;;;;;26.51;53.38;100909.13;4987220;28;20697;-71
2021/06/17 07:19:05;;;;;;;6.82;6.15;;;;;;;26.54;53.33;100911.53;4986175;28;20216;-72
2021/06/17 07:21:31;;;;;;;9.93;5.95;;;;;;;26.58;52.47;100904.94;5002412;28;20885;-72
2021/06/17 07:23:59;;;;;;;6.80;6.20;;;;;;;26.60;52.30;100917.19;5004565;28;20205;-72
2021/06/17 07:26:29;;;;;;;9.48;6.25;;;;;;;26.67;51.79;100912.16;5000746;28;20200;-71
2021/06/17 07:28:58;;;;;;;8.52;6.18;;;;;;;26.92;52.29;100916.13;4999088;28;20252;-70
2021/06/17 07:31:25;;;;;;;6.88;5.78;;;;;;;26.94;51.45;100926.69;5001172;28;20197;-72
2021/06/17 07:33:51;;;;;;;6.63;5.93;;;;;;;27.06;50.38;100922.91;4994552;28;20211;-72
2021/06/17 07:36:18;;;;;;;7.85;6.13;;;;;;;27.10;53.29;100918.09;5000889;28;20213;-72
2021/06/17 07:38:45;;;;;;;9.27;6.43;;;;;;;27.11;52.24;100915.28;5004392;28;20331;-72
2021/06/17 07:41:12;;;;;;;6.88;6.18;;;;;;;27.19;50.31;100923.47;5000285;28;20307;-72
2021/06/17 07:43:38;;;;;;;6.68;6.03;;;;;;;27.42;49.78;100928.53;5000301;28;20209;-72
2021/06/17 07:46:06;;;;;;;6.30;5.70;;;;;;;27.52;50.10;100928.53;4997911;28;20208;-70
2021/06/17 07:48:33;;;;;;;6.88;6.18;;;;;;;27.67;48.70;100926.25;5003449;28;20225;-71
2021/06/17 07:50:59;;;;;;;8.02;5.90;;;;;;;27.80;49.70;100928.63;5003507;28;20228;-71
2021/06/17 07:53:26;;;;;;;7.47;5.68;;;;;;;27.81;48.92;100925.81;5003584;28;20212;-72
2021/06/17 07:55:52;;;;;;;7.10;5.53;;;;;;;27.86;48.46;100918.19;5001338;28;20356;-72
2021/06/17 07:58:19;;;;;;;6.47;5.38;;;;;;;27.94;48.74;100912.94;5001275;28;20225;-71
2021/06/17 08:00:45;;;;;;;6.47;5.53;;;;;;;28.07;47.90;100909.97;5003512;28;20214;-71
2021/06/17 08:03:13;;;;;;;6.35;5.63;;;;;;;28.25;46.76;100911.84;4985020;28;20212;-71
2021/06/17 08:05:39;;;;;;;8.43;5.85;;;;;;;28.30;46.25;100912.22;5000820;28;20212;-72
2021/06/17 08:08:07;;;;;;;9.00;5.70;;;;;;;28.37;46.98;100916.00;5004831;28;20227;-71
2021/06/17 08:10:34;;;;;;;7.40;5.85;;;;;;;28.43;46.98;100914.59;5001618;28;20706;-71
2021/06/17 08:13:00;;;;;;;6.68;5.57;;;;;;;28.52;46.42;100917.19;5002169;28;20288;-73
2021/06/17 08:15:27;;;;;;;5.93;5.32;;;;;;;28.60;45.49;100918.31;4997678;28;20585;-71
2021/06/17 08:17:54;;;;;;;6.68;5.55;;;;;;;28.77;45.44;100917.50;5002937;28;20287;-71
2021/06/17 08:20:22;;;;;;;5.63;5.05;;;;;;;28.81;46.03;100904.63;4997869;28;20211;-72
2021/06/17 08:22:49;;;;;;;6.18;5.57;;;;;;;28.87;45.18;100917.44;5001560;28;20669;-71
2021/06/17 08:25:15;;;;;;;6.15;4.85;;;;;;;28.95;42.89;100906.75;4984188;28;20557;-71
2021/06/17 08:27:42;;;;;;;6.22;4.65;;;;;;;29.03;44.38;100906.84;5006902;28;20857;-71
2021/06/17 08:30:11;;;;;;;6.20;4.63;;;;;;;29.11;43.06;100908.78;4999773;28;20228;-71
2021/06/17 08:32:37;;;;;;;5.80;4.82;;;;;;;29.15;43.73;100902.13;5005122;28;20209;-72
2021/06/17 08:35:05;;;;;;;5.22;4.72;;;;;;;29.27;43.08;100903.56;5001955;28;20266;-71
2021/06/17 08:37:33;;;;;;;6.03;4.82;;;;;;;29.30;44.64;100909.63;5003781;28;20334;-71
2021/06/17 08:40:00;;;;;;;7.30;5.07;;;;;;;29.35;43.36;100918.06;5001525;28;20208;-71
2021/06/17 08:42:28;;;;;;;9.07;5.07;;;;;;;29.54;43.99;100909.81;5008076;28;20224;-71
2021/06/17 08:44:54;;;;;;;6.00;5.22;;;;;;;29.67;43.33;100919.28;5000364;28;20213;-71
2021/06/17 08:47:21;;;;;;;5.95;4.75;;;;;;;29.79;41.47;100921.59;5002858;28;20747;-71
2021/06/17 08:49:49;;;;;;;6.95;4.90;;;;;;;29.77;42.23;100923.59;4996747;28;20798;-72
2021/06/17 08:52:18;;;;;;;5.75;5.15;;;;;;;29.81;42.16;100919.59;5003803;28;20209;-71
2021/06/17 08:54:46;;;;;;;7.13;5.00;;;;;;;29.85;41.95;100916.56;5004639;28;20207;-71
2021/06/17 08:57:14;;;;;;;5.38;4.63;;;;;;;29.86;43.25;100911.03;4998806;28;20224;-71
2021/06/17 08:59:43;;;;;;;6.72;4.65;;;;;;;29.96;42.04;100908.25;5003852;28;20366;-71
2021/06/17 09:02:09;;;;;;;6.25;4.47;;;;;;;30.02;40.15;100910.28;5008527;28;20584;-71
2021/06/17 09:04:36;;;;;;;5.00;4.50;;;;;;;30.09;43.21;100899.75;4999336;28;20215;-71
2021/06/17 09:07:06;;;;;;;5.82;4.85;;;;;;;30.26;40.54;100906.88;5002444;28;20581;-71
2021/06/17 09:09:34;;;;;;;4.60;4.20;;;;;;;30.38;38.35;100921.75;4982082;28;20264;-71
2021/06/17 09:12:04;;;;;;;5.85;4.15;;;;;;;30.49;40.78;100911.69;5001802;28;20196;-71
2021/06/17 09:14:31;;;;;;;5.07;4.57;;;;;;;30.58;39.59;100916.91;4998434;28;20209;-71
2021/06/17 09:16:59;;;;;;;4.50;4.07;;;;;;;30.62;39.66;100917.44;5002521;28;20761;-71
2021/06/17 09:19:41;;;;;;;5.47;4.43;;;;;;;30.67;39.43;100923.16;5000848;28;20212;-74
2021/06/17 09:22:08;;;;;;;4.93;4.15;;;;;;;30.49;37.61;100917.91;5001713;28;20205;-69
2021/06/17 09:24:36;;;;;;;4.38;3.97;;;;;;;30.55;40.93;100908.34;5005201;28;20271;-70
2021/06/17 09:27:21;;;;;;;4.53;4.13;;;;;;;30.62;37.52;100912.03;5000651;28;20221;-69
2021/06/17 09:29:48;;;;;;;4.85;3.83;;;;;;;30.64;37.99;100911.88;4993426;28;20229;-69
2021/06/17 09:32:19;;;;;;;5.38;4.07;;;;;;;30.61;38.15;100914.91;5006363;28;20192;-72
2021/06/17 09:34:46;;;;;;;5.18;3.90;;;;;;;30.60;39.32;100910.53;4985105;28;20216;-69
2021/06/17 09:37:27;;;;;;;4.45;3.90;;;;;;;30.61;39.09;100905.00;5003383;28;20239;-73
2021/06/17 09:39:54;;;;;;;5.32;4.40;;;;;;;30.58;38.42;100910.69;4999892;28;20237;-69
2021/06/17 09:42:29;;;;;;;4.45;3.70;;;;;;;30.59;35.47;100917.78;5005389;28;20201;-72
2021/06/17 09:44:55;;;;;;;3.97;3.55;;;;;;;30.67;37.13;100914.25;5002370;28;20236;-71
2021/06/17 09:47:22;;;;;;;4.50;3.47;;;;;;;30.75;37.67;100909.72;5005558;28;20278;-70
2021/06/17 09:49:51;;;;;;;4.07;3.45;;;;;;;30.88;37.42;100913.78;4999506;28;20229;-74
2021/06/17 09:52:18;;;;;;;3.90;3.60;;;;;;;31.12;36.57;100916.53;4999092;28;20270;-72
2021/06/17 09:54:44;;;;;;;5.20;3.53;;;;;;;31.17;34.18;100916.03;4998806;28;20216;-70
2021/06/17 09:57:15;;;;;;;3.65;3.15;;;;;;;31.24;36.39;100927.81;5005395;28;20226;-71
2021/06/17 09:59:46;;;;;;;3.35;3.03;;;;;;;31.24;34.94;100922.44;4990272;28;20205;-71
2021/06/17 10:02:17;;;;;;;3.70;3.15;;;;;;;31.19;35.55;100922.09;5003748;28;20200;-73
2021/06/17 10:04:44;;;;;;;2.83;2.63;;;;;;;31.12;36.31;100916.53;4999309;28;20220;-73
2021/06/17 10:07:11;;;;;;;3.35;3.05;;;;;;;31.27;36.29;100918.56;5004291;28;20227;-71
2021/06/17 10:09:38;;;;;;;5.03;3.22;;;;;;;31.29;34.07;100919.22;4997467;28;20937;-70
2021/06/17 10:12:06;;;;;;;3.25;2.95;;;;;;;31.38;36.88;100915.53;5001851;28;20194;-72
2021/06/17 10:14:32;;;;;;;3.17;2.88;;;;;;;31.45;34.93;100918.38;4986003;28;20239;-73
2021/06/17 10:17:00;;;;;;;3.10;2.80;;;;;;;31.49;32.16;100912.50;5004718;28;20229;-71
2021/06/17 10:19:28;;;;;;;4.00;3.40;;;;;;;31.47;34.66;100894.81;5001168;28;20209;-70
2021/06/17 10:21:54;;;;;;;3.42;3.13;;;;;;;31.47;35.00;100892.13;5001545;28;20240;-71
2021/06/17 10:24:23;;;;;;;3.78;3.25;;;;;;;31.52;36.85;100893.31;5000266;28;20752;-70
2021/06/17 10:26:51;;;;;;;4.00;3.60;;;;;;;31.56;35.66;100896.50;5002982;28;20211;-71
2021/06/17 10:29:35;;;;;;;4.35;3.90;;;;;;;31.64;36.64;100890.25;4999451;28;20220;-72
2021/06/17 10:32:04;;;;;;;4.43;3.63;;;;;;;31.73;35.69;100897.31;5000027;28;20213;-70
2021/06/17 10:34:51;;;;;;;7.40;3.60;;;;;;;31.80;34.63;100889.38;5001785;28;20887;-72
2021/06/17 10:37:20;;;;;;;5.47;3.50;;;;;;;31.82;36.53;100890.91;4996081;28;20229;-70
2021/06/17 10:39:49;;;;;;;3.75;3.45;;;;;;;31.72;35.99;100884.03;4985285;28;20223;-72
2021/06/17 10:42:40;;;;;;;4.63;3.63;;;;;;;31.74;36.79;100884.69;4985262;28;20260;-70
2021/06/17 10:45:12;;;;;;;3.58;3.25;;;;;;;31.96;36.67;100875.00;5000417;28;20645;-69
2021/06/17 10:47:56;;;;;;;3.72;3.33;;;;;;;31.99;34.23;100888.97;4996041;28;20243;-70
2021/06/17 10:50:27;;;;;;;3.70;3.40;;;;;;;31.97;35.90;100887.47;5002004;28;21282;-70
2021/06/17 10:52:55;;;;;;;3.60;3.30;;;;;;;32.03;34.05;100887.63;4985150;28;20205;-71
2021/06/17 10:55:24;;;;;;;3.33;3.03;;;;;;;32.06;33.65;100883.75;5002599;28;20216;-71
2021/06/17 10:57:53;;;;;;;3.65;3.35;;;;;;;32.05;35.80;100874.00;4999632;28;20331;-71
2021/06/17 11:00:52;;;;;;;3.50;3.20;;;;;;;32.07;32.93;100885.44;5000479;28;20647;-71
2021/06/17 11:03:39;;;;;;;3.33;3.10;;;;;;;32.22;33.41;100880.13;4897019;29;20330;-71
2021/06/17 11:06:07;;;;;;;3.78;3.17;;;;;;;32.23;33.40;100871.88;4906343;29;20238;-71
2021/06/17 11:08:34;;;;;;;3.78;3.47;;;;;;;32.26;34.20;100873.41;4956853;28;20236;-71
2021/06/17 11:11:02;;;;;;;4.57;3.63;;;;;;;32.07;32.69;100870.09;5004559;28;20208;-71
2021/06/17 11:13:30;;;;;;;4.07;3.33;;;;;;;31.89;33.84;100873.00;4998247;28;20211;-71
2021/06/17 11:15:57;;;;;;;4.63;3.58;;;;;;;31.60;35.40;100864.69;5004243;28;20800;-71
2021/06/17 11:18:59;;;;;;;4.30;3.60;;;;;;;31.82;35.55;100855.84;4998675;28;20357;-71
2021/06/17 11:21:39;;;;;;;4.22;3.70;;;;;;;32.08;36.04;100857.44;4996882;28;20569;-71
2021/06/17 11:24:31;;;;;;;4.30;3.90;;;;;;;31.95;35.14;100854.47;4995653;28;20694;-71
2021/06/17 11:26:57;;;;;;;4.30;3.88;;;;;;;31.95;35.40;100838.28;4999000;28;20247;-71